sensor_id;sensor_type;location;lat;lon;timestamp;pressure;altitude;pressure_sealevel;temperature;humidity
77165;BME280;66140;50.280;18.660;2023-03-14T05:02:39;97323.03;;;4.81;82.67
77165;BME280;66140;50.280;18.660;2023-03-14T05:05:05;97318.22;;;4.75;83.01
77165;BME280;66140;50.280;18.660;2023-03-14T05:07:30;97323.47;;;4.75;83.16
77165;BME280;66140;50.280;18.660;2023-03-14T05:09:56;97319.91;;;4.76;83.62
77165;BME280;66140;50.280;18.660;2023-03-14T05:12:21;97314.97;;;4.71;83.89
77165;BME280;66140;50.280;18.660;2023-03-14T05:14:47;97310.56;;;4.72;83.45
77165;BME280;66140;50.280;18.660;2023-03-14T05:17:12;97291.75;;;4.65;83.58
77165;BME280;66140;50.280;18.660;2023-03-14T05:19:40;97292.38;;;4.69;84.22
77165;BME280;66140;50.280;18.660;2023-03-14T05:22:06;97284.81;;;4.64;84.39
77165;BME280;66140;50.280;18.660;2023-03-14T05:24:34;97281.34;;;4.64;84.17
77165;BME280;66140;50.280;18.660;2023-03-14T05:27:00;97289.03;;;4.67;83.84
77165;BME280;66140;50.280;18.660;2023-03-14T05:29:25;97284.91;;;4.63;84.97
77165;BME280;66140;50.280;18.660;2023-03-14T05:31:50;97295.94;;;4.68;84.86
77165;BME280;66140;50.280;18.660;2023-03-14T05:34:16;97291.66;;;4.67;85.08
77165;BME280;66140;50.280;18.660;2023-03-14T05:36:41;97294.03;;;4.70;85.09
77165;BME280;66140;50.280;18.660;2023-03-14T05:39:07;97298.03;;;4.75;84.99
77165;BME280;66140;50.280;18.660;2023-03-14T05:41:32;97288.16;;;4.79;84.72
77165;BME280;66140;50.280;18.660;2023-03-14T05:43:58;97281.31;;;4.76;84.25
77165;BME280;66140;50.280;18.660;2023-03-14T05:46:23;97281.00;;;4.81;84.82
77165;BME280;66140;50.280;18.660;2023-03-14T05:48:48;97264.81;;;4.87;84.04
77165;BME280;66140;50.280;18.660;2023-03-14T05:51:14;97259.44;;;4.89;84.26
77165;BME280;66140;50.280;18.660;2023-03-14T05:53:39;97245.03;;;4.94;84.47
77165;BME280;66140;50.280;18.660;2023-03-14T05:56:05;97248.91;;;5.01;84.44
77165;BME280;66140;50.280;18.660;2023-03-14T05:58:30;97236.16;;;5.08;84.03
77165;BME280;66140;50.280;18.660;2023-03-14T06:00:56;97231.41;;;5.13;84.57
77165;BME280;66140;50.280;18.660;2023-03-14T06:03:21;97225.84;;;5.17;84.09
77165;BME280;66140;50.280;18.660;2023-03-14T06:05:50;97225.28;;;5.25;83.55
77165;BME280;66140;50.280;18.660;2023-03-14T06:08:16;97241.75;;;5.40;83.30
77165;BME280;66140;50.280;18.660;2023-03-14T06:10:41;97239.50;;;5.46;83.29
77165;BME280;66140;50.280;18.660;2023-03-14T06:13:07;97228.44;;;5.54;82.24
77165;BME280;66140;50.280;18.660;2023-03-14T06:15:32;97227.53;;;5.66;82.05
77165;BME280;66140;50.280;18.660;2023-03-14T06:17:58;97228.06;;;5.82;81.92
77165;BME280;66140;50.280;18.660;2023-03-14T06:20:23;97216.88;;;5.91;81.14
77165;BME280;66140;50.280;18.660;2023-03-14T06:22:49;97210.94;;;6.00;81.68
77165;BME280;66140;50.280;18.660;2023-03-14T06:25:14;97187.47;;;6.09;80.68
77165;BME280;66140;50.280;18.660;2023-03-14T06:27:40;97184.63;;;6.23;80.60
77165;BME280;66140;50.280;18.660;2023-03-14T06:30:06;97173.88;;;6.48;80.04
77165;BME280;66140;50.280;18.660;2023-03-14T06:32:32;97172.91;;;6.82;78.47
77165;BME280;66140;50.280;18.660;2023-03-14T06:34:57;97168.75;;;7.12;77.05
77165;BME280;66140;50.280;18.660;2023-03-14T06:37:26;97184.44;;;7.56;74.57
77165;BME280;66140;50.280;18.660;2023-03-14T06:39:51;97177.16;;;7.81;73.03
77165;BME280;66140;50.280;18.660;2023-03-14T06:42:17;97175.84;;;7.96;71.86
77165;BME280;66140;50.280;18.660;2023-03-14T06:44:42;97172.38;;;8.16;71.43
77165;BME280;66140;50.280;18.660;2023-03-14T06:47:08;97176.13;;;8.34;70.51
77165;BME280;66140;50.280;18.660;2023-03-14T06:49:33;97175.06;;;8.47;69.85
77165;BME280;66140;50.280;18.660;2023-03-14T06:51:59;97177.88;;;8.55;69.50
77165;BME280;66140;50.280;18.660;2023-03-14T06:54:27;97170.53;;;8.58;69.25
77165;BME280;66140;50.280;18.660;2023-03-14T06:56:53;97169.56;;;8.59;69.07
77165;BME280;66140;50.280;18.660;2023-03-14T06:59:18;97192.16;;;8.73;68.12
77165;BME280;66140;50.280;18.660;2023-03-14T07:01:44;97197.75;;;8.79;68.57
77165;BME280;66140;50.280;18.660;2023-03-14T07:04:10;97186.91;;;8.82;68.37
77165;BME280;66140;50.280;18.660;2023-03-14T07:06:35;97181.94;;;8.89;67.98
77165;BME280;66140;50.280;18.660;2023-03-14T07:09:01;97200.50;;;9.08;67.21
77165;BME280;66140;50.280;18.660;2023-03-14T07:11:29;97207.06;;;9.23;67.42
77165;BME280;66140;50.280;18.660;2023-03-14T07:13:54;97207.66;;;9.27;67.19
77165;BME280;66140;50.280;18.660;2023-03-14T07:16:20;97217.97;;;9.40;66.96
77165;BME280;66140;50.280;18.660;2023-03-14T07:18:48;97217.44;;;9.46;66.67
77165;BME280;66140;50.280;18.660;2023-03-14T07:21:14;97218.28;;;9.56;65.68
77165;BME280;66140;50.280;18.660;2023-03-14T07:23:43;97212.28;;;9.63;66.28
77165;BME280;66140;50.280;18.660;2023-03-14T07:26:13;97218.13;;;9.67;65.43
77165;BME280;66140;50.280;18.660;2023-03-14T07:31:44;97237.25;;;9.71;66.50
77165;BME280;66140;50.280;18.660;2023-03-14T07:34:18;97237.50;;;9.68;66.89
77165;BME280;66140;50.280;18.660;2023-03-14T07:37:07;97233.59;;;9.62;66.36
77165;BME280;66140;50.280;18.660;2023-03-14T07:39:42;97229.72;;;9.66;66.26
77165;BME280;66140;50.280;18.660;2023-03-14T07:42:16;97230.81;;;9.73;65.64
77165;BME280;66140;50.280;18.660;2023-03-14T07:44:49;97235.31;;;9.82;65.63
77165;BME280;66140;50.280;18.660;2023-03-14T07:47:15;97243.97;;;9.84;65.89
77165;BME280;66140;50.280;18.660;2023-03-14T07:49:40;97251.34;;;9.90;65.81
77165;BME280;66140;50.280;18.660;2023-03-14T07:52:06;97253.84;;;10.01;65.51
77165;BME280;66140;50.280;18.660;2023-03-14T07:54:59;97245.63;;;10.04;65.30
77165;BME280;66140;50.280;18.660;2023-03-14T07:57:34;97235.72;;;10.06;65.06
77165;BME280;66140;50.280;18.660;2023-03-14T07:59:59;97226.94;;;10.16;64.62
77165;BME280;66140;50.280;18.660;2023-03-14T08:02:27;97237.81;;;10.13;65.10
77165;BME280;66140;50.280;18.660;2023-03-14T08:04:56;97254.59;;;10.23;64.82
77165;BME280;66140;50.280;18.660;2023-03-14T08:07:21;97239.78;;;10.30;64.30
77165;BME280;66140;50.280;18.660;2023-03-14T08:09:47;97244.50;;;10.45;63.06
77165;BME280;66140;50.280;18.660;2023-03-14T08:12:12;97250.06;;;10.52;63.30
77165;BME280;66140;50.280;18.660;2023-03-14T08:14:38;97245.16;;;10.57;64.55
77165;BME280;66140;50.280;18.660;2023-03-14T08:17:04;97245.81;;;10.78;62.30
77165;BME280;66140;50.280;18.660;2023-03-14T08:19:33;97245.47;;;11.01;62.18
77165;BME280;66140;50.280;18.660;2023-03-14T08:21:59;97247.72;;;11.23;61.86
77165;BME280;66140;50.280;18.660;2023-03-14T08:24:28;97241.63;;;11.40;60.93
77165;BME280;66140;50.280;18.660;2023-03-14T08:26:53;97244.09;;;11.51;61.06
77165;BME280;66140;50.280;18.660;2023-03-14T08:29:19;97238.66;;;11.71;59.11
77165;BME280;66140;50.280;18.660;2023-03-14T08:31:53;97228.53;;;11.84;58.41
77165;BME280;66140;50.280;18.660;2023-03-14T08:34:24;97233.28;;;11.80;59.01
77165;BME280;66140;50.280;18.660;2023-03-14T08:36:53;97250.25;;;11.70;59.18
77165;BME280;66140;50.280;18.660;2023-03-14T08:39:20;97224.44;;;11.62;59.18
77165;BME280;66140;50.280;18.660;2023-03-14T08:41:46;97228.81;;;11.53;60.53
77165;BME280;66140;50.280;18.660;2023-03-14T08:44:11;97232.16;;;11.38;60.92
77165;BME280;66140;50.280;18.660;2023-03-14T08:46:37;97220.97;;;11.34;59.97
77165;BME280;66140;50.280;18.660;2023-03-14T08:49:03;97225.31;;;11.35;60.76
77165;BME280;66140;50.280;18.660;2023-03-14T08:51:28;97224.91;;;11.30;60.19
77165;BME280;66140;50.280;18.660;2023-03-14T08:53:54;97240.75;;;11.22;61.42
77165;BME280;66140;50.280;18.660;2023-03-14T08:56:20;97249.00;;;11.19;60.88
77165;BME280;66140;50.280;18.660;2023-03-14T08:58:45;97266.06;;;11.16;61.43
77165;BME280;66140;50.280;18.660;2023-03-14T09:01:11;97257.97;;;11.08;61.65
77165;BME280;66140;50.280;18.660;2023-03-14T09:03:37;97273.88;;;11.18;60.78
77165;BME280;66140;50.280;18.660;2023-03-14T09:06:08;97275.25;;;11.22;61.98
77165;BME280;66140;50.280;18.660;2023-03-14T09:08:34;97258.16;;;11.34;61.20
77165;BME280;66140;50.280;18.660;2023-03-14T09:11:00;97271.13;;;11.64;60.75
77165;BME280;66140;50.280;18.660;2023-03-14T09:13:26;97264.38;;;11.70;60.48
77165;BME280;66140;50.280;18.660;2023-03-14T09:15:55;97271.09;;;11.74;60.57
77165;BME280;66140;50.280;18.660;2023-03-14T09:18:21;97277.25;;;11.75;60.59
77165;BME280;66140;50.280;18.660;2023-03-14T09:20:48;97277.50;;;11.72;60.87
77165;BME280;66140;50.280;18.660;2023-03-14T09:23:14;97282.03;;;11.61;59.17
77165;BME280;66140;50.280;18.660;2023-03-14T09:25:39;97274.91;;;11.62;59.52
77165;BME280;66140;50.280;18.660;2023-03-14T09:28:05;97253.91;;;11.69;59.65
77165;BME280;66140;50.280;18.660;2023-03-14T09:30:30;97248.72;;;11.77;59.92
77165;BME280;66140;50.280;18.660;2023-03-14T09:32:56;97253.09;;;11.86;60.79
77165;BME280;66140;50.280;18.660;2023-03-14T09:35:23;97249.47;;;11.87;59.56
77165;BME280;66140;50.280;18.660;2023-03-14T09:37:48;97256.91;;;12.01;59.89
77165;BME280;66140;50.280;18.660;2023-03-14T09:40:18;97258.28;;;12.05;60.72
77165;BME280;66140;50.280;18.660;2023-03-14T09:42:47;97276.34;;;12.19;59.93
77165;BME280;66140;50.280;18.660;2023-03-14T09:45:36;97277.31;;;12.36;58.76
77165;BME280;66140;50.280;18.660;2023-03-14T09:48:04;97257.78;;;12.45;58.97
77165;BME280;66140;50.280;18.660;2023-03-14T09:50:37;97240.28;;;12.60;59.39
77165;BME280;66140;50.280;18.660;2023-03-14T09:53:07;97246.53;;;12.77;57.69
77165;BME280;66140;50.280;18.660;2023-03-14T09:55:35;97276.44;;;12.97;57.51
77165;BME280;66140;50.280;18.660;2023-03-14T09:58:03;97279.25;;;12.95;57.67
77165;BME280;66140;50.280;18.660;2023-03-14T10:00:31;97281.78;;;12.97;57.21
77165;BME280;66140;50.280;18.660;2023-03-14T10:05:30;97283.25;;;12.91;58.51
77165;BME280;66140;50.280;18.660;2023-03-14T10:07:56;97281.16;;;12.77;58.67
77165;BME280;66140;50.280;18.660;2023-03-14T10:10:24;97292.66;;;12.60;59.39
77165;BME280;66140;50.280;18.660;2023-03-14T10:15:29;97308.25;;;12.19;60.07
77165;BME280;66140;50.280;18.660;2023-03-14T10:17:55;97310.59;;;12.04;61.29
77165;BME280;66140;50.280;18.660;2023-03-14T10:20:34;97313.19;;;11.96;61.10
77165;BME280;66140;50.280;18.660;2023-03-14T10:25:41;97304.97;;;11.62;62.16
77165;BME280;66140;50.280;18.660;2023-03-14T10:28:28;97311.34;;;11.52;63.13
77165;BME280;66140;50.280;18.660;2023-03-14T10:30:54;97325.72;;;11.49;62.73
77165;BME280;66140;50.280;18.660;2023-03-14T10:33:21;97313.75;;;11.45;62.60
77165;BME280;66140;50.280;18.660;2023-03-14T10:35:53;97308.44;;;11.36;63.50
77165;BME280;66140;50.280;18.660;2023-03-14T10:38:24;97302.38;;;11.25;64.79
77165;BME280;66140;50.280;18.660;2023-03-14T10:40:52;97309.63;;;11.23;64.87
77165;BME280;66140;50.280;18.660;2023-03-14T10:43:23;97313.56;;;11.19;65.56
77165;BME280;66140;50.280;18.660;2023-03-14T10:45:57;97300.88;;;11.13;64.41
77165;BME280;66140;50.280;18.660;2023-03-14T10:48:31;97316.34;;;11.18;64.97
77165;BME280;66140;50.280;18.660;2023-03-14T10:53:25;97310.53;;;11.05;65.49
77165;BME280;66140;50.280;18.660;2023-03-14T10:55:51;97319.47;;;11.04;66.03
77165;BME280;66140;50.280;18.660;2023-03-14T10:58:27;97317.13;;;11.01;66.64
77165;BME280;66140;50.280;18.660;2023-03-14T11:01:01;97313.09;;;10.87;67.60
77165;BME280;66140;50.280;18.660;2023-03-14T11:03:31;97310.84;;;10.82;69.23
77165;BME280;66140;50.280;18.660;2023-03-14T11:06:18;97322.34;;;10.73;71.43
77165;BME280;66140;50.280;18.660;2023-03-14T11:08:53;97325.28;;;10.51;71.80
77165;BME280;66140;50.280;18.660;2023-03-14T11:11:27;97323.50;;;10.42;70.28
77165;BME280;66140;50.280;18.660;2023-03-14T11:13:57;97331.56;;;10.40;73.05
77165;BME280;66140;50.280;18.660;2023-03-14T11:16:58;97314.00;;;10.30;72.57
77165;BME280;66140;50.280;18.660;2023-03-14T11:19:37;97319.31;;;10.30;73.44
77165;BME280;66140;50.280;18.660;2023-03-14T11:25:01;97309.28;;;10.24;73.42
77165;BME280;66140;50.280;18.660;2023-03-14T11:30:35;97315.13;;;10.18;74.71
77165;BME280;66140;50.280;18.660;2023-03-14T11:33:12;97309.91;;;10.06;74.36
77165;BME280;66140;50.280;18.660;2023-03-14T11:35:54;97307.81;;;10.00;73.94
77165;BME280;66140;50.280;18.660;2023-03-14T11:38:34;97309.78;;;10.08;72.88
77165;BME280;66140;50.280;18.660;2023-03-14T11:41:04;97309.78;;;10.08;74.22
77165;BME280;66140;50.280;18.660;2023-03-14T11:43:39;97325.81;;;10.06;73.96
77165;BME280;66140;50.280;18.660;2023-03-14T11:51:27;97327.03;;;9.83;77.04
77165;BME280;66140;50.280;18.660;2023-03-14T11:54:02;97316.69;;;9.71;77.28
77165;BME280;66140;50.280;18.660;2023-03-14T11:56:37;97315.28;;;9.66;78.12
77165;BME280;66140;50.280;18.660;2023-03-14T11:59:16;97307.31;;;9.57;78.77
77165;BME280;66140;50.280;18.660;2023-03-14T12:01:52;97302.44;;;9.52;79.27
77165;BME280;66140;50.280;18.660;2023-03-14T12:10:18;97304.47;;;9.79;78.43
77165;BME280;66140;50.280;18.660;2023-03-14T12:12:43;97313.09;;;9.81;79.03
77165;BME280;66140;50.280;18.660;2023-03-14T12:15:18;97313.38;;;9.78;79.29
77165;BME280;66140;50.280;18.660;2023-03-14T12:17:44;97318.38;;;9.81;77.87
77165;BME280;66140;50.280;18.660;2023-03-14T12:23:04;97309.47;;;9.82;78.09
77165;BME280;66140;50.280;18.660;2023-03-14T12:25:32;97297.19;;;9.81;77.89
77165;BME280;66140;50.280;18.660;2023-03-14T12:28:16;97292.19;;;9.88;78.31
77165;BME280;66140;50.280;18.660;2023-03-14T12:30:43;97285.94;;;9.98;77.61
77165;BME280;66140;50.280;18.660;2023-03-14T12:35:47;97288.34;;;10.21;77.20
77165;BME280;66140;50.280;18.660;2023-03-14T12:43:39;97285.81;;;10.38;80.10
77165;BME280;66140;50.280;18.660;2023-03-14T12:48:33;97283.84;;;10.31;80.14
77165;BME280;66140;50.280;18.660;2023-03-14T12:51:04;97290.69;;;10.33;79.41
77165;BME280;66140;50.280;18.660;2023-03-14T13:01:35;97281.03;;;10.13;80.34
77165;BME280;66140;50.280;18.660;2023-03-14T13:04:09;97289.97;;;10.02;81.55
77165;BME280;66140;50.280;18.660;2023-03-14T13:06:54;97266.25;;;10.01;81.37
77165;BME280;66140;50.280;18.660;2023-03-14T13:12:16;97271.56;;;10.01;81.43
77165;BME280;66140;50.280;18.660;2023-03-14T13:14:45;97275.19;;;10.00;82.00
77165;BME280;66140;50.280;18.660;2023-03-14T13:17:12;97271.41;;;9.93;83.14
77165;BME280;66140;50.280;18.660;2023-03-14T13:19:39;97280.75;;;9.87;83.17
77165;BME280;66140;50.280;18.660;2023-03-14T13:22:12;97275.75;;;9.84;83.06
77165;BME280;66140;50.280;18.660;2023-03-14T13:24:40;97282.16;;;9.91;83.18
77165;BME280;66140;50.280;18.660;2023-03-14T13:27:16;97279.06;;;9.86;84.18
77165;BME280;66140;50.280;18.660;2023-03-14T13:29:43;97276.00;;;9.81;83.73
77165;BME280;66140;50.280;18.660;2023-03-14T13:32:21;97280.34;;;9.82;83.57
77165;BME280;66140;50.280;18.660;2023-03-14T13:34:47;97283.09;;;9.81;84.07
77165;BME280;66140;50.280;18.660;2023-03-14T13:37:21;97287.44;;;9.82;84.31
77165;BME280;66140;50.280;18.660;2023-03-14T13:39:56;97296.22;;;9.82;85.03
77165;BME280;66140;50.280;18.660;2023-03-14T13:42:26;97292.44;;;9.75;85.36
77165;BME280;66140;50.280;18.660;2023-03-14T13:44:53;97303.03;;;9.75;85.27
77165;BME280;66140;50.280;18.660;2023-03-14T13:47:21;97300.50;;;9.64;85.57
77165;BME280;66140;50.280;18.660;2023-03-14T13:49:48;97301.47;;;9.63;86.17
77165;BME280;66140;50.280;18.660;2023-03-14T13:52:35;97300.78;;;9.61;85.50
77165;BME280;66140;50.280;18.660;2023-03-14T13:55:03;97290.03;;;9.53;85.92
77165;BME280;66140;50.280;18.660;2023-03-14T13:57:50;97287.41;;;9.53;85.81
77165;BME280;66140;50.280;18.660;2023-03-14T14:00:25;97274.16;;;9.53;86.38
77165;BME280;66140;50.280;18.660;2023-03-14T14:02:58;97265.50;;;9.51;85.78
77165;BME280;66140;50.280;18.660;2023-03-14T14:05:26;97288.25;;;9.63;86.30
77165;BME280;66140;50.280;18.660;2023-03-14T14:07:52;97296.72;;;9.57;86.99
77165;BME280;66140;50.280;18.660;2023-03-14T14:10:19;97303.97;;;9.55;87.79
77165;BME280;66140;50.280;18.660;2023-03-14T14:15:28;97289.59;;;9.48;88.71
77165;BME280;66140;50.280;18.660;2023-03-14T14:17:58;97273.72;;;9.48;88.14
77165;BME280;66140;50.280;18.660;2023-03-14T14:20:26;97265.50;;;9.51;88.04
77165;BME280;66140;50.280;18.660;2023-03-14T14:23:01;97268.16;;;9.51;87.75
77165;BME280;66140;50.280;18.660;2023-03-14T14:25:28;97271.66;;;9.51;88.23
77165;BME280;66140;50.280;18.660;2023-03-14T14:27:54;97279.59;;;9.61;87.94
77165;BME280;66140;50.280;18.660;2023-03-14T14:32:47;97279.03;;;9.67;87.58
77165;BME280;66140;50.280;18.660;2023-03-14T14:35:24;97284.34;;;9.67;86.60
77165;BME280;66140;50.280;18.660;2023-03-14T14:37:49;97275.84;;;9.63;86.88
77165;BME280;66140;50.280;18.660;2023-03-14T14:40:26;97271.53;;;9.62;87.03
77165;BME280;66140;50.280;18.660;2023-03-14T14:42:53;97260.09;;;9.62;87.40
77165;BME280;66140;50.280;18.660;2023-03-14T14:45:23;97268.75;;;9.64;86.55
77165;BME280;66140;50.280;18.660;2023-03-14T14:51:02;97244.50;;;9.69;85.81
77165;BME280;66140;50.280;18.660;2023-03-14T14:55:56;97240.03;;;9.69;85.85
77165;BME280;66140;50.280;18.660;2023-03-14T14:58:27;97226.38;;;9.64;85.72
77165;BME280;66140;50.280;18.660;2023-03-14T15:03:31;97234.72;;;9.69;85.73
77165;BME280;66140;50.280;18.660;2023-03-14T15:05:57;97229.03;;;9.64;85.89
77165;BME280;66140;50.280;18.660;2023-03-14T15:08:24;97244.50;;;9.59;85.90
77165;BME280;66140;50.280;18.660;2023-03-14T15:10:50;97222.19;;;9.52;86.14
77165;BME280;66140;50.280;18.660;2023-03-14T15:13:16;97222.44;;;9.49;86.80
77165;BME280;66140;50.280;18.660;2023-03-14T15:15:41;97232.78;;;9.52;86.16
77165;BME280;66140;50.280;18.660;2023-03-14T15:18:16;97228.44;;;9.51;86.16
77165;BME280;66140;50.280;18.660;2023-03-14T15:20:43;97229.16;;;9.53;86.41
77165;BME280;66140;50.280;18.660;2023-03-14T15:23:13;97223.56;;;9.46;86.61
77165;BME280;66140;50.280;18.660;2023-03-14T15:25:39;97222.44;;;9.49;87.39
77165;BME280;66140;50.280;18.660;2023-03-14T15:28:26;97205.72;;;9.48;87.01
77165;BME280;66140;50.280;18.660;2023-03-14T15:30:54;97203.06;;;9.48;86.85
77165;BME280;66140;50.280;18.660;2023-03-14T15:33:20;97187.06;;;9.50;86.79
77165;BME280;66140;50.280;18.660;2023-03-14T15:35:47;97166.84;;;9.49;87.21
77165;BME280;66140;50.280;18.660;2023-03-14T15:38:15;97165.88;;;9.50;87.29
77165;BME280;66140;50.280;18.660;2023-03-14T15:40:41;97163.94;;;9.52;86.71
77165;BME280;66140;50.280;18.660;2023-03-14T15:43:07;97148.31;;;9.49;86.88
77165;BME280;66140;50.280;18.660;2023-03-14T15:45:45;97163.94;;;9.52;86.16
77165;BME280;66140;50.280;18.660;2023-03-14T15:48:50;97170.91;;;9.53;86.85
77165;BME280;66140;50.280;18.660;2023-03-14T15:51:29;97173.13;;;9.48;86.82
77165;BME280;66140;50.280;18.660;2023-03-14T15:54:00;97195.41;;;9.45;86.80
77165;BME280;66140;50.280;18.660;2023-03-14T15:56:26;97181.75;;;9.50;86.34
77165;BME280;66140;50.280;18.660;2023-03-14T15:58:55;97220.09;;;9.46;86.15
77165;BME280;66140;50.280;18.660;2023-03-14T16:01:24;97224.66;;;9.44;86.63
77165;BME280;66140;50.280;18.660;2023-03-14T16:03:53;97218.25;;;9.37;87.00
77165;BME280;66140;50.280;18.660;2023-03-14T16:06:19;97220.88;;;9.37;87.37
77165;BME280;66140;50.280;18.660;2023-03-14T16:08:45;97241.22;;;9.36;87.06
77165;BME280;66140;50.280;18.660;2023-03-14T16:11:12;97233.41;;;9.35;87.34
77165;BME280;66140;50.280;18.660;2023-03-14T16:13:39;97249.56;;;9.32;87.72
77165;BME280;66140;50.280;18.660;2023-03-14T16:16:05;97253.91;;;9.33;87.20
77165;BME280;66140;50.280;18.660;2023-03-14T16:18:34;97246.81;;;9.33;87.00
77165;BME280;66140;50.280;18.660;2023-03-14T16:21:06;97249.72;;;9.30;87.10
77165;BME280;66140;50.280;18.660;2023-03-14T16:23:39;97258.06;;;9.35;87.12
77165;BME280;66140;50.280;18.660;2023-03-14T16:26:07;97255.59;;;9.34;87.52
77165;BME280;66140;50.280;18.660;2023-03-14T16:28:33;97248.31;;;9.26;87.21
77165;BME280;66140;50.280;18.660;2023-03-14T16:31:02;97241.91;;;9.29;86.86
77165;BME280;66140;50.280;18.660;2023-03-14T16:33:28;97242.91;;;9.28;87.13
77165;BME280;66140;50.280;18.660;2023-03-14T16:36:00;97253.59;;;9.26;87.14
77165;BME280;66140;50.280;18.660;2023-03-14T16:38:31;97249.81;;;9.19;87.45
77165;BME280;66140;50.280;18.660;2023-03-14T16:41:17;97246.34;;;9.18;87.54
77165;BME280;66140;50.280;18.660;2023-03-14T16:43:43;97243.50;;;9.10;87.03
77165;BME280;66140;50.280;18.660;2023-03-14T16:46:16;97255.22;;;9.08;87.72
77165;BME280;66140;50.280;18.660;2023-03-14T16:48:42;97248.19;;;8.97;87.45
77165;BME280;66140;50.280;18.660;2023-03-14T16:51:07;97239.13;;;8.90;87.65
77165;BME280;66140;50.280;18.660;2023-03-14T16:53:34;97250.69;;;8.89;87.96
77165;BME280;66140;50.280;18.660;2023-03-14T16:56:00;97249.78;;;8.79;87.92
77165;BME280;66140;50.280;18.660;2023-03-14T16:58:25;97242.78;;;8.68;88.57
77165;BME280;66140;50.280;18.660;2023-03-14T17:00:54;97245.84;;;8.64;88.98
77165;BME280;66140;50.280;18.660;2023-03-14T17:03:22;97254.28;;;8.58;88.94
77165;BME280;66140;50.280;18.660;2023-03-14T17:05:49;97259.00;;;8.54;89.50
77165;BME280;66140;50.280;18.660;2023-03-14T17:08:16;97263.25;;;8.45;89.49
77165;BME280;66140;50.280;18.660;2023-03-14T17:10:42;97250.69;;;8.38;89.14
77165;BME280;66140;50.280;18.660;2023-03-14T17:13:07;97246.50;;;8.35;89.79
77165;BME280;66140;50.280;18.660;2023-03-14T17:15:35;97258.31;;;8.31;89.72
77165;BME280;66140;50.280;18.660;2023-03-14T17:18:02;97246.97;;;8.29;89.92
77165;BME280;66140;50.280;18.660;2023-03-14T17:20:28;97245.31;;;8.28;89.88
77165;BME280;66140;50.280;18.660;2023-03-14T17:22:55;97259.75;;;8.24;89.62
77165;BME280;66140;50.280;18.660;2023-03-14T17:25:23;97253.31;;;8.17;90.04
77165;BME280;66140;50.280;18.660;2023-03-14T17:27:49;97257.47;;;8.20;90.22
77165;BME280;66140;50.280;18.660;2023-03-14T17:30:14;97254.97;;;8.18;90.40
77165;BME280;66140;50.280;18.660;2023-03-14T17:32:43;97257.75;;;8.17;89.63
77165;BME280;66140;50.280;18.660;2023-03-14T17:35:08;97262.19;;;8.16;90.08
77165;BME280;66140;50.280;18.660;2023-03-14T17:37:34;97260.50;;;8.15;89.66
77165;BME280;66140;50.280;18.660;2023-03-14T17:39:59;97258.81;;;8.14;89.79
77165;BME280;66140;50.280;18.660;2023-03-14T17:42:27;97252.00;;;8.12;90.13
77165;BME280;66140;50.280;18.660;2023-03-14T17:44:53;97258.59;;;8.17;89.80
77165;BME280;66140;50.280;18.660;2023-03-14T17:47:19;97264.72;;;8.18;89.97
77165;BME280;66140;50.280;18.660;2023-03-14T17:49:44;97276.13;;;8.18;89.44
77165;BME280;66140;50.280;18.660;2023-03-14T17:52:11;97273.91;;;8.23;89.64
77165;BME280;66140;50.280;18.660;2023-03-14T17:54:37;97281.44;;;8.28;89.39
77165;BME280;66140;50.280;18.660;2023-03-14T17:57:02;97283.72;;;8.32;88.98
77165;BME280;66140;50.280;18.660;2023-03-14T17:59:28;97282.56;;;8.25;89.26
77165;BME280;66140;50.280;18.660;2023-03-14T18:01:55;97281.44;;;8.28;88.91
77165;BME280;66140;50.280;18.660;2023-03-14T18:04:21;97277.13;;;8.27;88.06
77165;BME280;66140;50.280;18.660;2023-03-14T18:06:46;97297.56;;;8.25;88.30
77165;BME280;66140;50.280;18.660;2023-03-14T18:09:14;97314.50;;;8.22;88.72
77165;BME280;66140;50.280;18.660;2023-03-14T18:11:39;97303.59;;;8.16;88.08
77165;BME280;66140;50.280;18.660;2023-03-14T18:14:05;97315.25;;;8.13;87.68
77165;BME280;66140;50.280;18.660;2023-03-14T18:16:39;97316.38;;;8.11;87.70
77165;BME280;66140;50.280;18.660;2023-03-14T18:19:05;97315.75;;;8.07;88.27
77165;BME280;66140;50.280;18.660;2023-03-14T18:21:31;97326.59;;;8.04;87.61
77165;BME280;66140;50.280;18.660;2023-03-14T18:23:56;97319.63;;;8.03;87.97
77165;BME280;66140;50.280;18.660;2023-03-14T18:26:22;97328.63;;;8.00;87.67
77165;BME280;66140;50.280;18.660;2023-03-14T18:28:51;97326.59;;;8.04;87.13
77165;BME280;66140;50.280;18.660;2023-03-14T18:31:18;97326.81;;;8.01;87.70
77165;BME280;66140;50.280;18.660;2023-03-14T18:33:46;97334.25;;;8.07;86.92
77165;BME280;66140;50.280;18.660;2023-03-14T18:36:12;97332.59;;;8.06;86.92
77165;BME280;66140;50.280;18.660;2023-03-14T18:38:38;97341.59;;;8.03;87.50
77165;BME280;66140;50.280;18.660;2023-03-14T18:41:09;97331.88;;;8.04;87.16
77165;BME280;66140;50.280;18.660;2023-03-14T18:43:34;97335.03;;;7.98;87.28
77165;BME280;66140;50.280;18.660;2023-03-14T18:46:00;97342.94;;;7.98;87.41
77165;BME280;66140;50.280;18.660;2023-03-14T18:48:26;97360.69;;;7.96;87.31
77165;BME280;66140;50.280;18.660;2023-03-14T18:50:51;97348.97;;;7.89;87.33
77165;BME280;66140;50.280;18.660;2023-03-14T18:53:17;97362.63;;;7.94;87.87
77165;BME280;66140;50.280;18.660;2023-03-14T18:55:43;97357.84;;;7.88;87.43
77165;BME280;66140;50.280;18.660;2023-03-14T18:58:08;97355.56;;;7.83;87.53
77165;BME280;66140;50.280;18.660;2023-03-14T19:00:34;97354.72;;;7.83;87.99
77165;BME280;66140;50.280;18.660;2023-03-14T19:03:01;97347.91;;;7.80;88.32
77165;BME280;66140;50.280;18.660;2023-03-14T19:05:28;97359.78;;;7.86;88.15
77165;BME280;66140;50.280;18.660;2023-03-14T19:07:54;97360.47;;;7.88;87.99
77165;BME280;66140;50.280;18.660;2023-03-14T19:10:22;97355.19;;;7.88;87.85
77165;BME280;66140;50.280;18.660;2023-03-14T19:12:48;97362.88;;;7.91;88.45
77165;BME280;66140;50.280;18.660;2023-03-14T19:15:13;97360.75;;;7.85;88.68